createdAt,value
2023-09-26T00:00:25.013Z,10.30
2023-09-26T00:03:14.185Z,10.70
2023-09-26T00:05:43.741Z,10.00
2023-09-26T00:08:12.412Z,10.10
2023-09-26T00:10:41.183Z,10.30
2023-09-26T00:13:09.916Z,11.70
2023-09-26T00:15:38.456Z,9.80
2023-09-26T00:18:07.899Z,9.60
2023-09-26T00:20:40.131Z,12.30
2023-09-26T00:23:08.491Z,12.90
2023-09-26T00:25:39.250Z,12.40
2023-09-26T00:28:08.686Z,12.40
2023-09-26T00:30:37.255Z,11.80
2023-09-26T00:33:05.910Z,12.10
2023-09-26T00:35:34.618Z,10.80
2023-09-26T00:38:03.400Z,11.30
2023-09-26T00:40:32.313Z,11.90
2023-09-26T00:43:04.084Z,11.70
2023-09-26T00:45:33.879Z,10.80
2023-09-26T00:48:04.607Z,12.10
2023-09-26T00:50:33.281Z,12.80
2023-09-26T00:53:01.885Z,12.70
2023-09-26T00:55:30.442Z,10.60
2023-09-26T00:57:59.433Z,11.10
2023-09-26T01:00:28.417Z,10.90
2023-09-26T01:02:59.468Z,13.50
2023-09-26T01:05:28.578Z,10.90
2023-09-26T01:07:57.135Z,11.60
2023-09-26T01:10:26.304Z,12.00
2023-09-26T01:12:54.669Z,13.50
2023-09-26T01:15:40.614Z,11.50
2023-09-26T01:18:09.619Z,11.70
2023-09-26T01:20:44.670Z,11.30
2023-09-26T01:23:16.425Z,11.60
2023-09-26T01:25:45.803Z,11.10
2023-09-26T01:28:18.436Z,10.30
2023-09-26T01:30:48.350Z,11.40
2023-09-26T01:33:18.418Z,13.10
2023-09-26T01:35:47.919Z,11.80
2023-09-26T01:38:18.554Z,12.80
2023-09-26T01:40:47.748Z,12.00
2023-09-26T01:43:17.390Z,11.60
2023-09-26T01:45:46.157Z,10.70
2023-09-26T01:48:15.226Z,12.00
2023-09-26T01:50:44.738Z,13.30
2023-09-26T01:53:15.479Z,13.30
2023-09-26T01:55:45.073Z,13.30
2023-09-26T01:58:14.098Z,13.10
2023-09-26T02:00:43.851Z,13.60
2023-09-26T02:03:12.623Z,13.50
2023-09-26T02:05:42.011Z,13.50
2023-09-26T02:08:10.780Z,13.70
2023-09-26T02:10:39.455Z,14.80
2023-09-26T02:13:08.139Z,15.70
2023-09-26T02:15:38.050Z,16.80
2023-09-26T02:18:07.233Z,13.10
2023-09-26T02:20:35.937Z,13.90
2023-09-26T02:23:05.514Z,13.00
2023-09-26T02:25:33.961Z,12.40
2023-09-26T02:28:03.066Z,12.20
2023-09-26T02:30:31.714Z,14.40
2023-09-26T02:33:00.334Z,16.70
2023-09-26T02:35:29.143Z,18.30
2023-09-26T02:37:58.330Z,15.10
2023-09-26T02:40:27.362Z,14.70
2023-09-26T02:42:55.923Z,14.50
2023-09-26T02:45:24.358Z,15.40
2023-09-26T02:47:52.739Z,15.70
2023-09-26T02:50:24.033Z,17.40
2023-09-26T02:52:53.878Z,18.70
2023-09-26T02:55:22.698Z,17.30
2023-09-26T02:57:51.485Z,18.40
2023-09-26T03:00:20.802Z,16.90
2023-09-26T03:02:49.767Z,17.00
2023-09-26T03:05:19.683Z,18.40
2023-09-26T03:07:51.220Z,16.60
2023-09-26T03:10:20.285Z,14.70
2023-09-26T03:12:50.260Z,15.40
2023-09-26T03:15:19.336Z,15.40
2023-09-26T03:17:49.140Z,16.00
2023-09-26T03:20:18.009Z,18.80
2023-09-26T03:22:46.843Z,16.60
2023-09-26T03:25:15.413Z,18.90
2023-09-26T03:31:19.633Z,17.70
2023-09-26T03:33:51.739Z,19.30
2023-09-26T03:36:20.469Z,19.20
2023-09-26T03:38:50.483Z,20.80
2023-09-26T03:41:18.785Z,18.60
2023-09-26T03:43:48.010Z,20.20
2023-09-26T03:46:16.497Z,20.20
2023-09-26T03:48:45.128Z,19.00
2023-09-26T03:51:15.020Z,18.50
2023-09-26T03:53:44.680Z,18.30
2023-09-26T03:56:13.172Z,19.80
2023-09-26T03:58:41.716Z,20.60
2023-09-26T04:01:14.506Z,21.50
2023-09-26T04:03:47.946Z,20.20
2023-09-26T04:06:17.565Z,19.40
2023-09-26T04:08:47.216Z,18.60
2023-09-26T04:11:19.508Z,20.90
2023-09-26T04:13:47.858Z,20.10
2023-09-26T04:16:16.473Z,22.10
2023-09-26T04:18:48.346Z,21.60
2023-09-26T04:21:17.656Z,19.30
2023-09-26T04:23:46.183Z,19.80
2023-09-26T04:26:16.814Z,20.20
2023-09-26T04:28:50.104Z,20.80
2023-09-26T04:31:20.118Z,21.00
2023-09-26T04:33:49.929Z,21.10
2023-09-26T04:36:18.833Z,22.00
2023-09-26T04:38:48.005Z,21.50
2023-09-26T04:41:17.566Z,18.90
2023-09-26T04:43:45.834Z,20.90
2023-09-26T04:46:15.435Z,21.20
2023-09-26T04:48:45.643Z,22.00
2023-09-26T04:51:17.291Z,20.00
2023-09-26T04:53:45.668Z,20.50
2023-09-26T04:56:14.178Z,21.70
2023-09-26T04:58:42.651Z,19.40
2023-09-26T05:01:16.325Z,21.60
2023-09-26T05:03:46.368Z,30.80
2023-09-26T05:06:15.073Z,27.20
2023-09-26T05:08:43.689Z,24.50
2023-09-26T05:11:16.485Z,24.20
2023-09-26T05:13:45.299Z,21.20
2023-09-26T05:16:16.121Z,19.80
2023-09-26T05:18:44.448Z,18.70
2023-09-26T05:21:13.337Z,19.30
2023-09-26T05:23:41.776Z,20.30
2023-09-26T05:26:12.744Z,20.60
2023-09-26T05:28:42.327Z,20.20
2023-09-26T05:31:10.890Z,20.30
2023-09-26T05:33:39.494Z,18.00
2023-09-26T05:36:08.345Z,19.90
2023-09-26T05:38:37.071Z,22.00
2023-09-26T05:41:06.927Z,21.50
2023-09-26T05:43:35.521Z,22.00
2023-09-26T05:46:05.867Z,22.10
2023-09-26T05:48:36.018Z,21.50
2023-09-26T05:51:04.946Z,20.10
2023-09-26T05:53:33.589Z,22.40
2023-09-26T05:56:02.825Z,25.60
2023-09-26T05:58:31.405Z,22.90
2023-09-26T06:01:07.808Z,24.40
2023-09-26T06:06:05.896Z,20.30
2023-09-26T06:08:35.752Z,24.00
2023-09-26T06:11:05.876Z,24.10
2023-09-26T06:13:34.700Z,22.30
2023-09-26T06:16:06.796Z,23.20
2023-09-26T06:18:35.416Z,22.90
2023-09-26T06:21:05.382Z,22.60
2023-09-26T06:23:34.313Z,25.90
2023-09-26T06:26:03.971Z,24.00
2023-09-26T06:28:32.763Z,23.80
2023-09-26T06:31:11.901Z,22.70
2023-09-26T06:33:42.762Z,21.80
2023-09-26T06:36:15.087Z,20.80
2023-09-26T06:38:43.731Z,22.60
2023-09-26T06:41:12.192Z,22.40
2023-09-26T06:43:40.592Z,23.30
2023-09-26T06:46:10.225Z,20.80
2023-09-26T06:48:39.866Z,22.40
2023-09-26T06:51:09.689Z,26.00
2023-09-26T06:53:38.778Z,23.20
2023-09-26T06:56:09.549Z,27.20
2023-09-26T06:58:39.394Z,25.00
2023-09-26T07:01:19.201Z,22.10
2023-09-26T07:03:47.718Z,21.40
2023-09-26T07:06:16.889Z,21.30
2023-09-26T07:08:46.070Z,20.80
2023-09-26T07:11:14.694Z,24.90
2023-09-26T07:16:14.367Z,24.90
2023-09-26T07:18:42.808Z,24.40
2023-09-26T07:21:11.242Z,22.10
2023-09-26T07:23:39.556Z,19.30
2023-09-26T07:26:15.707Z,22.00
2023-09-26T07:28:46.859Z,19.10
2023-09-26T07:31:19.116Z,21.50
2023-09-26T07:33:47.883Z,19.20
2023-09-26T07:36:16.889Z,18.60
2023-09-26T07:38:45.760Z,19.50
2023-09-26T07:41:14.028Z,19.50
2023-09-26T07:43:44.250Z,18.80
2023-09-26T07:46:13.530Z,18.50
2023-09-26T07:48:41.972Z,18.90
2023-09-26T07:51:13.876Z,20.70
2023-09-26T07:53:45.161Z,24.30
2023-09-26T07:56:14.730Z,19.40
2023-09-26T07:58:43.281Z,18.90
2023-09-26T08:01:11.924Z,17.70
2023-09-26T08:03:40.597Z,17.10
2023-09-26T08:06:09.335Z,16.90
2023-09-26T08:08:38.112Z,17.20
2023-09-26T08:11:09.933Z,16.20
2023-09-26T08:13:40.810Z,16.30
2023-09-26T08:16:10.929Z,16.80
2023-09-26T08:18:39.617Z,17.80
2023-09-26T08:21:08.516Z,16.00
2023-09-26T08:23:37.290Z,15.00
2023-09-26T08:26:12.205Z,15.20
2023-09-26T08:28:41.323Z,14.30
2023-09-26T08:31:16.160Z,14.00
2023-09-26T08:33:46.145Z,14.60
2023-09-26T08:36:16.911Z,14.20
2023-09-26T08:38:46.519Z,13.40
2023-09-26T08:41:18.267Z,13.60
2023-09-26T08:43:49.431Z,12.50
2023-09-26T08:46:18.992Z,12.10
2023-09-26T08:48:49.269Z,12.50
2023-09-26T08:51:18.002Z,11.70
2023-09-26T08:53:46.865Z,11.70
2023-09-26T08:56:15.269Z,10.70
2023-09-26T08:58:46.199Z,11.10
2023-09-26T09:01:14.849Z,11.20
2023-09-26T09:03:43.219Z,10.90
2023-09-26T09:25:44.871Z,10.00
2023-09-26T09:28:21.573Z,10.00
2023-09-26T09:30:51.791Z,9.50
2023-09-26T09:33:21.282Z,10.20
2023-09-26T09:35:49.545Z,9.70
2023-09-26T09:38:18.849Z,10.20
2023-09-26T09:40:47.871Z,8.60
2023-09-26T09:43:16.562Z,9.50
2023-09-26T09:45:48.564Z,8.50
2023-09-26T09:48:18.213Z,8.90
2023-09-26T09:50:51.417Z,8.00
2023-09-26T09:53:22.228Z,10.30
2023-09-26T09:55:54.247Z,8.40
2023-09-26T09:58:29.456Z,7.30
2023-09-26T10:00:58.224Z,7.00
2023-09-26T10:03:27.717Z,5.60
2023-09-26T10:05:57.316Z,5.30
2023-09-26T10:08:28.201Z,6.50
2023-09-26T10:10:58.180Z,6.20
2023-09-26T10:16:09.062Z,6.30
2023-09-26T10:18:39.391Z,5.50
2023-09-26T10:21:33.424Z,7.20
2023-09-26T10:24:11.015Z,7.90
2023-09-26T10:26:50.294Z,7.80
2023-09-26T10:29:21.452Z,7.30
2023-09-26T10:32:00.443Z,6.50
2023-09-26T10:37:26.637Z,6.90
2023-09-26T10:39:56.119Z,5.30
2023-09-26T10:45:00.135Z,5.60
2023-09-26T10:47:28.638Z,5.70
2023-09-26T10:50:01.231Z,5.70
2023-09-26T10:52:31.835Z,6.50
2023-09-26T10:55:00.359Z,5.80
2023-09-26T10:57:29.468Z,5.70
2023-09-26T10:59:57.889Z,5.70
2023-09-26T11:02:26.653Z,5.60
2023-09-26T11:04:55.909Z,5.30
2023-09-26T11:07:25.205Z,5.90
2023-09-26T11:09:53.917Z,6.20
2023-09-26T11:12:23.571Z,5.60
2023-09-26T11:14:55.568Z,5.90
2023-09-26T11:17:30.979Z,5.90
2023-09-26T11:20:06.785Z,5.90
2023-09-26T11:22:50.025Z,5.50
2023-09-26T11:25:18.741Z,6.40
2023-09-26T11:27:49.458Z,5.20
2023-09-26T11:30:21.021Z,5.90
2023-09-26T11:32:53.996Z,5.40
2023-09-26T11:35:24.089Z,5.30
2023-09-26T11:37:54.257Z,6.20
2023-09-26T11:40:24.168Z,5.70
2023-09-26T11:42:56.922Z,5.10
2023-09-26T11:45:27.727Z,6.20
2023-09-26T11:47:58.383Z,5.40
2023-09-26T11:50:29.600Z,5.50
2023-09-26T11:53:02.389Z,5.80
2023-09-26T11:58:01.044Z,5.40
2023-09-26T12:00:30.122Z,5.30
2023-09-26T12:02:59.681Z,6.50
2023-09-26T12:05:28.751Z,5.90
2023-09-26T12:07:57.376Z,5.60
2023-09-26T12:10:25.805Z,5.10
2023-09-26T12:12:55.932Z,5.70
2023-09-26T12:15:26.758Z,5.30
2023-09-26T12:17:58.049Z,7.60
2023-09-26T12:20:27.440Z,7.00
2023-09-26T12:22:57.853Z,5.40
2023-09-26T12:25:29.355Z,5.60
2023-09-26T12:27:57.973Z,5.30
2023-09-26T12:30:26.838Z,6.90
2023-09-26T12:32:56.292Z,5.20
2023-09-26T12:35:25.766Z,5.00
2023-09-26T12:37:56.173Z,5.60
2023-09-26T12:40:25.342Z,5.90
2023-09-26T12:42:53.948Z,7.30
2023-09-26T12:45:22.294Z,6.30
2023-09-26T12:47:50.693Z,6.00
2023-09-26T12:50:19.161Z,6.80
2023-09-26T12:52:47.604Z,6.50
2023-09-26T12:55:18.236Z,6.30
2023-09-26T12:57:46.725Z,6.50
2023-09-26T13:00:15.905Z,5.50
2023-09-26T13:02:44.799Z,5.70
2023-09-26T13:05:13.807Z,5.70
2023-09-26T13:07:42.107Z,5.80
2023-09-26T13:10:11.688Z,6.20
2023-09-26T13:12:40.106Z,4.40
2023-09-26T13:15:13.061Z,5.40
2023-09-26T13:17:42.154Z,4.70
2023-09-26T13:20:12.694Z,5.30
2023-09-26T13:22:41.742Z,5.70
2023-09-26T13:25:10.458Z,5.30
2023-09-26T13:27:38.777Z,5.30
2023-09-26T13:30:08.166Z,6.20
2023-09-26T13:32:37.037Z,5.90
2023-09-26T13:35:06.326Z,5.40
2023-09-26T13:37:36.657Z,6.50
2023-09-26T13:40:06.345Z,6.80
2023-09-26T13:42:34.940Z,6.50
2023-09-26T13:45:04.542Z,7.20
2023-09-26T13:47:33.779Z,8.10
2023-09-26T13:50:02.250Z,9.30
2023-09-26T13:52:31.748Z,10.10
2023-09-26T13:55:00.628Z,9.90
2023-09-26T13:57:29.030Z,9.20
2023-09-26T13:59:57.774Z,9.80
2023-09-26T14:02:26.921Z,8.90
2023-09-26T14:05:09.389Z,9.50
2023-09-26T14:07:44.072Z,10.90
2023-09-26T14:10:12.429Z,11.30
2023-09-26T14:12:40.773Z,10.10
2023-09-26T14:15:10.018Z,9.50
2023-09-26T14:17:38.364Z,9.50
2023-09-26T14:20:10.602Z,11.00
2023-09-26T14:22:40.361Z,10.70
2023-09-26T14:25:12.961Z,8.50
2023-09-26T14:27:41.507Z,10.10
2023-09-26T14:30:12.003Z,8.90
2023-09-26T14:32:43.919Z,9.00
2023-09-26T14:35:13.074Z,8.00
2023-09-26T14:37:41.456Z,8.50
2023-09-26T14:40:11.489Z,8.70
2023-09-26T14:42:39.807Z,8.00
2023-09-26T14:45:13.339Z,7.50
2023-09-26T14:47:45.352Z,7.30
2023-09-26T14:50:29.415Z,7.10
2023-09-26T14:53:05.872Z,9.20
2023-09-26T14:55:38.090Z,7.80
2023-09-26T14:58:10.982Z,7.80
2023-09-26T15:00:50.180Z,7.60
2023-09-26T15:03:25.088Z,8.50
2023-09-26T15:05:54.832Z,8.90
2023-09-26T15:08:23.992Z,8.00
2023-09-26T15:10:52.537Z,8.10
2023-09-26T15:13:23.214Z,8.30
2023-09-26T15:16:06.083Z,9.10
2023-09-26T15:18:58.753Z,9.00
2023-09-26T15:21:35.076Z,8.90
2023-09-26T15:24:08.417Z,8.60
2023-09-26T15:26:36.686Z,8.30
2023-09-26T15:29:10.883Z,8.70
2023-09-26T15:31:43.513Z,9.30
2023-09-26T15:34:14.501Z,8.60
2023-09-26T15:37:01.882Z,7.80
2023-09-26T15:39:38.917Z,8.90
2023-09-26T15:42:08.204Z,7.70
2023-09-26T15:44:56.318Z,8.00
2023-09-26T15:47:34.907Z,9.70
2023-09-26T15:50:05.954Z,17.80
2023-09-26T15:52:38.821Z,13.80
2023-09-26T15:55:09.082Z,12.40
2023-09-26T15:57:39.611Z,13.40
2023-09-26T16:00:13.912Z,11.20
2023-09-26T16:02:45.193Z,10.10
2023-09-26T16:05:14.123Z,11.00
2023-09-26T16:07:43.223Z,9.80
2023-09-26T16:10:39.204Z,10.50
2023-09-26T16:13:10.555Z,10.40
2023-09-26T16:15:50.373Z,11.30
2023-09-26T16:18:20.385Z,11.20
2023-09-26T16:20:54.192Z,11.30
2023-09-26T16:23:26.968Z,11.20
2023-09-26T16:25:59.410Z,13.10
2023-09-26T16:28:29.256Z,12.20
2023-09-26T16:31:02.937Z,14.50
2023-09-26T16:33:35.812Z,16.10
2023-09-26T16:36:23.460Z,15.60
2023-09-26T16:38:55.427Z,16.50
2023-09-26T16:41:25.057Z,16.80
2023-09-26T16:43:53.611Z,16.30
2023-09-26T16:46:27.257Z,13.40
2023-09-26T16:49:11.809Z,12.20
2023-09-26T16:51:41.795Z,13.90
2023-09-26T16:54:16.297Z,14.80
2023-09-26T16:56:59.695Z,12.00
2023-09-26T16:59:39.116Z,14.80
2023-09-26T17:02:10.319Z,14.40
2023-09-26T17:04:38.816Z,15.80
2023-09-26T17:07:08.299Z,17.40
2023-09-26T17:09:37.128Z,16.00
2023-09-26T17:12:16.796Z,15.50
2023-09-26T17:14:48.625Z,16.30
2023-09-26T17:17:19.377Z,14.90
2023-09-26T17:19:48.813Z,15.10
2023-09-26T17:22:19.008Z,15.00
2023-09-26T17:24:51.105Z,14.30
2023-09-26T17:27:20.397Z,13.70
2023-09-26T17:29:52.689Z,14.60
2023-09-26T17:32:26.154Z,14.50
2023-09-26T17:34:57.356Z,13.90
2023-09-26T17:37:26.942Z,15.00
2023-09-26T17:39:56.338Z,15.50
2023-09-26T17:42:25.367Z,15.10
2023-09-26T17:44:54.153Z,14.80
2023-09-26T17:47:22.632Z,16.10
2023-09-26T17:49:51.526Z,15.00
2023-09-26T17:52:20.765Z,15.10
2023-09-26T17:54:49.366Z,16.70
2023-09-26T17:57:18.295Z,14.70
2023-09-26T17:59:47.260Z,14.20
2023-09-26T18:02:15.800Z,14.40
2023-09-26T18:04:48.802Z,15.70
2023-09-26T18:07:18.419Z,15.20
2023-09-26T18:09:47.041Z,14.00
2023-09-26T18:12:15.965Z,13.60
2023-09-26T18:14:44.471Z,15.70
2023-09-26T18:17:15.372Z,14.60
2023-09-26T18:19:44.733Z,16.00
2023-09-26T18:22:13.596Z,15.70
2023-09-26T18:24:42.722Z,16.10
2023-09-26T18:27:11.892Z,15.10
2023-09-26T18:29:40.678Z,15.40
2023-09-26T18:32:09.389Z,16.00
2023-09-26T18:34:38.621Z,16.00
2023-09-26T18:37:07.769Z,16.70
2023-09-26T18:39:36.352Z,16.70
2023-09-26T18:42:05.062Z,15.90
2023-09-26T18:44:33.921Z,15.60
2023-09-26T18:47:02.458Z,14.40
2023-09-26T18:49:31.134Z,15.50
2023-09-26T18:52:00.196Z,15.70
2023-09-26T18:54:29.271Z,15.40
2023-09-26T18:56:57.965Z,15.90
2023-09-26T18:59:26.134Z,15.50
2023-09-26T19:01:54.597Z,17.20
2023-09-26T19:04:23.451Z,15.70
2023-09-26T19:06:52.333Z,14.20
2023-09-26T19:09:20.876Z,15.90
2023-09-26T19:11:56.542Z,14.60
2023-09-26T19:14:26.173Z,13.70
2023-09-26T19:16:54.759Z,11.60
2023-09-26T19:19:24.141Z,10.50
2023-09-26T19:21:53.754Z,13.20
2023-09-26T19:24:23.564Z,11.60
2023-09-26T19:26:52.477Z,12.60
2023-09-26T19:32:56.621Z,14.00
2023-09-26T19:35:25.199Z,13.30
2023-09-26T19:37:54.000Z,13.70
2023-09-26T19:40:22.475Z,13.90
2023-09-26T19:42:50.906Z,11.00
2023-09-26T19:45:19.629Z,11.30
2023-09-26T19:47:48.929Z,14.60
2023-09-26T19:50:17.904Z,12.90
2023-09-26T19:52:46.638Z,12.30
2023-09-26T19:55:15.573Z,12.30
2023-09-26T19:57:48.557Z,12.80
2023-09-26T20:00:18.190Z,12.50
2023-09-26T20:02:46.529Z,13.00
2023-09-26T20:05:18.268Z,11.10
2023-09-26T20:07:47.038Z,11.80
2023-09-26T20:10:15.667Z,12.50
2023-09-26T20:12:43.966Z,11.60
2023-09-26T20:15:23.091Z,12.90
2023-09-26T20:17:52.684Z,12.90
2023-09-26T20:20:21.538Z,12.80
2023-09-26T20:22:51.592Z,15.00
2023-09-26T20:25:21.103Z,12.60
2023-09-26T20:27:54.566Z,13.00
2023-09-26T20:30:23.518Z,11.60
2023-09-26T20:32:52.083Z,11.40
2023-09-26T20:35:21.024Z,11.90
2023-09-26T20:37:49.456Z,12.20
2023-09-26T20:40:18.078Z,12.10
2023-09-26T20:42:46.630Z,11.30
2023-09-26T20:45:15.885Z,12.10
2023-09-26T20:47:45.696Z,12.60
2023-09-26T20:50:14.231Z,11.90
2023-09-26T20:52:42.967Z,11.10
2023-09-26T20:55:11.884Z,11.30
2023-09-26T20:57:40.505Z,11.40
2023-09-26T21:00:10.878Z,11.90
2023-09-26T21:02:39.378Z,11.10
2023-09-26T21:26:14.244Z,12.70
2023-09-26T21:28:45.830Z,11.60
2023-09-26T21:31:15.911Z,10.70
2023-09-26T21:33:44.406Z,11.60
2023-09-26T21:36:13.778Z,12.00
2023-09-26T21:38:42.154Z,12.10
2023-09-26T21:41:10.800Z,12.90
2023-09-26T21:43:39.969Z,11.70
2023-09-26T21:46:08.221Z,11.80
2023-09-26T21:48:36.728Z,10.90
2023-09-26T21:51:05.686Z,11.80
2023-09-26T21:53:34.145Z,11.50
2023-09-26T21:56:11.957Z,11.40
2023-09-26T21:58:40.204Z,12.80
2023-09-26T22:01:12.575Z,12.60
2023-09-26T22:03:41.562Z,12.40
2023-09-26T22:06:11.447Z,12.50
2023-09-26T22:08:39.794Z,12.30
2023-09-26T22:11:08.754Z,11.10
2023-09-26T22:13:39.940Z,11.50
2023-09-26T22:16:08.397Z,11.40
2023-09-26T22:18:37.220Z,11.90
2023-09-26T22:21:05.784Z,12.10
2023-09-26T22:23:34.275Z,12.70
2023-09-26T22:26:02.987Z,11.20
2023-09-26T22:28:31.327Z,11.10
2023-09-26T22:30:59.608Z,11.80
2023-09-26T22:33:28.711Z,11.00
2023-09-26T22:35:57.386Z,11.60
2023-09-26T22:38:25.997Z,12.50
2023-09-26T22:40:54.679Z,12.10
2023-09-26T22:43:22.874Z,11.40
2023-09-26T22:45:51.474Z,12.70
2023-09-26T22:48:20.195Z,11.90
2023-09-26T22:50:48.855Z,11.50
2023-09-26T22:53:17.223Z,12.50
2023-09-26T22:55:49.470Z,14.10
2023-09-26T22:58:18.364Z,12.50
2023-09-26T23:00:47.442Z,12.60
2023-09-26T23:03:16.438Z,12.70
2023-09-26T23:05:45.440Z,11.90
2023-09-26T23:08:13.978Z,13.80
2023-09-26T23:10:42.274Z,11.10
2023-09-26T23:13:10.691Z,13.00
2023-09-26T23:15:39.157Z,11.20
2023-09-26T23:18:07.953Z,12.20
2023-09-26T23:20:41.307Z,11.00
2023-09-26T23:23:09.780Z,13.30
2023-09-26T23:25:38.629Z,11.90
2023-09-26T23:28:07.477Z,11.90
2023-09-26T23:30:36.291Z,12.90
2023-09-26T23:33:06.131Z,11.50
2023-09-26T23:35:36.362Z,13.70
2023-09-26T23:38:06.765Z,13.80
2023-09-26T23:40:35.154Z,13.60
2023-09-26T23:43:04.811Z,12.60
2023-09-26T23:45:34.244Z,12.30
2023-09-26T23:48:04.041Z,11.00
2023-09-26T23:50:32.501Z,10.10
2023-09-26T23:53:01.677Z,10.40
2023-09-26T23:55:30.194Z,12.10
2023-09-26T23:57:58.503Z,11.80
